sensor_id;sensor_type;location;lat;lon;timestamp;P1;durP1;ratioP1;P2;durP2;ratioP2
73814;SDS011;62145;55.648;37.602;2022-08-19T00:01:30;8.20;;;5.00;;
73814;SDS011;62145;55.648;37.602;2022-08-19T00:03:58;11.40;;;5.13;;
73814;SDS011;62145;55.648;37.602;2022-08-19T00:06:29;9.20;;;5.20;;
73814;SDS011;62145;55.648;37.602;2022-08-19T00:08:56;8.52;;;4.78;;
73814;SDS011;62145;55.648;37.602;2022-08-19T00:11:23;14.23;;;5.20;;
73814;SDS011;62145;55.648;37.602;2022-08-19T00:13:50;10.20;;;5.20;;
73814;SDS011;62145;55.648;37.602;2022-08-19T00:16:16;9.73;;;5.43;;
73814;SDS011;62145;55.648;37.602;2022-08-19T00:18:44;11.73;;;5.30;;
73814;SDS011;62145;55.648;37.602;2022-08-19T00:21:10;10.82;;;4.88;;
73814;SDS011;62145;55.648;37.602;2022-08-19T00:23:36;11.25;;;5.28;;
73814;SDS011;62145;55.648;37.602;2022-08-19T00:26:05;11.30;;;5.33;;
73814;SDS011;62145;55.648;37.602;2022-08-19T00:28:32;11.32;;;5.38;;
73814;SDS011;62145;55.648;37.602;2022-08-19T00:30:59;11.52;;;5.38;;
73814;SDS011;62145;55.648;37.602;2022-08-19T00:33:25;9.35;;;5.30;;
73814;SDS011;62145;55.648;37.602;2022-08-19T00:35:51;12.03;;;5.57;;
73814;SDS011;62145;55.648;37.602;2022-08-19T00:38:17;9.73;;;5.40;;
73814;SDS011;62145;55.648;37.602;2022-08-19T00:40:43;9.55;;;5.40;;
73814;SDS011;62145;55.648;37.602;2022-08-19T00:43:12;10.10;;;5.20;;
73814;SDS011;62145;55.648;37.602;2022-08-19T00:45:38;9.27;;;5.00;;
73814;SDS011;62145;55.648;37.602;2022-08-19T00:48:07;13.27;;;5.22;;
73814;SDS011;62145;55.648;37.602;2022-08-19T00:50:33;10.90;;;5.18;;
73814;SDS011;62145;55.648;37.602;2022-08-19T00:52:59;8.60;;;4.35;;
73814;SDS011;62145;55.648;37.602;2022-08-19T00:55:30;10.63;;;5.67;;
73814;SDS011;62145;55.648;37.602;2022-08-19T00:58:00;8.75;;;4.70;;
73814;SDS011;62145;55.648;37.602;2022-08-19T01:00:29;8.30;;;4.60;;
73814;SDS011;62145;55.648;37.602;2022-08-19T01:02:55;9.52;;;4.97;;
73814;SDS011;62145;55.648;37.602;2022-08-19T01:05:23;9.68;;;4.85;;
73814;SDS011;62145;55.648;37.602;2022-08-19T01:07:53;8.97;;;4.53;;
73814;SDS011;62145;55.648;37.602;2022-08-19T01:10:21;9.70;;;5.20;;
73814;SDS011;62145;55.648;37.602;2022-08-19T01:12:49;9.52;;;4.40;;
73814;SDS011;62145;55.648;37.602;2022-08-19T01:15:17;9.90;;;4.70;;
73814;SDS011;62145;55.648;37.602;2022-08-19T01:17:46;10.73;;;5.03;;
73814;SDS011;62145;55.648;37.602;2022-08-19T01:20:14;14.10;;;5.13;;
73814;SDS011;62145;55.648;37.602;2022-08-19T01:22:44;9.55;;;5.30;;
73814;SDS011;62145;55.648;37.602;2022-08-19T01:25:11;11.15;;;5.32;;
73814;SDS011;62145;55.648;37.602;2022-08-19T01:27:42;9.70;;;4.68;;
73814;SDS011;62145;55.648;37.602;2022-08-19T01:30:14;9.25;;;4.50;;
73814;SDS011;62145;55.648;37.602;2022-08-19T01:32:42;9.00;;;4.40;;
73814;SDS011;62145;55.648;37.602;2022-08-19T01:35:09;11.55;;;5.45;;
73814;SDS011;62145;55.648;37.602;2022-08-19T01:37:43;8.77;;;4.03;;
73814;SDS011;62145;55.648;37.602;2022-08-19T01:40:13;9.05;;;4.45;;
73814;SDS011;62145;55.648;37.602;2022-08-19T01:42:40;9.23;;;4.40;;
73814;SDS011;62145;55.648;37.602;2022-08-19T01:45:06;7.97;;;4.30;;
73814;SDS011;62145;55.648;37.602;2022-08-19T01:47:34;10.32;;;4.20;;
73814;SDS011;62145;55.648;37.602;2022-08-19T01:50:01;10.88;;;4.00;;
73814;SDS011;62145;55.648;37.602;2022-08-19T01:52:28;8.77;;;3.92;;
73814;SDS011;62145;55.648;37.602;2022-08-19T01:54:54;8.27;;;4.10;;
73814;SDS011;62145;55.648;37.602;2022-08-19T01:57:20;9.55;;;4.10;;
73814;SDS011;62145;55.648;37.602;2022-08-19T01:59:46;9.43;;;4.00;;
73814;SDS011;62145;55.648;37.602;2022-08-19T02:02:12;8.53;;;3.80;;
73814;SDS011;62145;55.648;37.602;2022-08-19T02:04:39;12.73;;;4.30;;
73814;SDS011;62145;55.648;37.602;2022-08-19T02:07:05;9.65;;;4.20;;
73814;SDS011;62145;55.648;37.602;2022-08-19T02:09:33;8.15;;;4.07;;
73814;SDS011;62145;55.648;37.602;2022-08-19T02:11:59;10.45;;;4.90;;
73814;SDS011;62145;55.648;37.602;2022-08-19T02:14:25;8.53;;;4.10;;
73814;SDS011;62145;55.648;37.602;2022-08-19T02:16:52;9.20;;;4.70;;
73814;SDS011;62145;55.648;37.602;2022-08-19T02:19:18;11.43;;;4.50;;
73814;SDS011;62145;55.648;37.602;2022-08-19T02:21:43;8.30;;;4.68;;
73814;SDS011;62145;55.648;37.602;2022-08-19T02:24:09;9.83;;;4.57;;
73814;SDS011;62145;55.648;37.602;2022-08-19T02:26:35;12.52;;;4.47;;
73814;SDS011;62145;55.648;37.602;2022-08-19T02:29:01;10.57;;;4.45;;
73814;SDS011;62145;55.648;37.602;2022-08-19T02:31:27;10.97;;;5.30;;
73814;SDS011;62145;55.648;37.602;2022-08-19T02:33:55;10.60;;;4.30;;
73814;SDS011;62145;55.648;37.602;2022-08-19T02:36:21;10.43;;;4.70;;
73814;SDS011;62145;55.648;37.602;2022-08-19T02:38:48;10.02;;;4.53;;
73814;SDS011;62145;55.648;37.602;2022-08-19T02:41:16;12.73;;;4.93;;
73814;SDS011;62145;55.648;37.602;2022-08-19T02:43:43;10.90;;;4.97;;
73814;SDS011;62145;55.648;37.602;2022-08-19T02:46:17;7.90;;;4.43;;
73814;SDS011;62145;55.648;37.602;2022-08-19T02:48:50;9.65;;;4.70;;
73814;SDS011;62145;55.648;37.602;2022-08-19T02:51:21;9.85;;;5.00;;
73814;SDS011;62145;55.648;37.602;2022-08-19T02:53:52;12.70;;;4.80;;
73814;SDS011;62145;55.648;37.602;2022-08-19T02:56:19;10.73;;;4.55;;
73814;SDS011;62145;55.648;37.602;2022-08-19T02:58:45;9.90;;;4.35;;
73814;SDS011;62145;55.648;37.602;2022-08-19T03:01:18;11.63;;;4.50;;
73814;SDS011;62145;55.648;37.602;2022-08-19T03:03:52;10.95;;;4.90;;
73814;SDS011;62145;55.648;37.602;2022-08-19T03:06:18;10.60;;;3.90;;
73814;SDS011;62145;55.648;37.602;2022-08-19T03:08:45;8.27;;;4.25;;
73814;SDS011;62145;55.648;37.602;2022-08-19T03:11:13;9.43;;;4.45;;
73814;SDS011;62145;55.648;37.602;2022-08-19T03:13:58;9.02;;;4.07;;
73814;SDS011;62145;55.648;37.602;2022-08-19T03:16:26;9.90;;;4.57;;
73814;SDS011;62145;55.648;37.602;2022-08-19T03:18:53;9.07;;;4.60;;
73814;SDS011;62145;55.648;37.602;2022-08-19T03:21:20;11.85;;;5.10;;
73814;SDS011;62145;55.648;37.602;2022-08-19T03:23:49;9.88;;;4.43;;
73814;SDS011;62145;55.648;37.602;2022-08-19T03:26:15;10.00;;;4.40;;
73814;SDS011;62145;55.648;37.602;2022-08-19T03:28:43;9.93;;;4.38;;
73814;SDS011;62145;55.648;37.602;2022-08-19T03:31:12;8.27;;;4.30;;
73814;SDS011;62145;55.648;37.602;2022-08-19T03:33:39;11.68;;;4.60;;
73814;SDS011;62145;55.648;37.602;2022-08-19T03:36:07;10.75;;;4.30;;
73814;SDS011;62145;55.648;37.602;2022-08-19T03:38:36;11.13;;;5.00;;
73814;SDS011;62145;55.648;37.602;2022-08-19T03:41:04;11.40;;;4.60;;
73814;SDS011;62145;55.648;37.602;2022-08-19T03:43:32;12.93;;;5.30;;
73814;SDS011;62145;55.648;37.602;2022-08-19T03:46:04;12.65;;;5.35;;
73814;SDS011;62145;55.648;37.602;2022-08-19T03:48:32;10.32;;;4.78;;
73814;SDS011;62145;55.648;37.602;2022-08-19T03:50:59;11.60;;;5.50;;
73814;SDS011;62145;55.648;37.602;2022-08-19T03:53:26;11.18;;;5.18;;
73814;SDS011;62145;55.648;37.602;2022-08-19T03:55:53;10.17;;;5.40;;
73814;SDS011;62145;55.648;37.602;2022-08-19T03:58:21;9.57;;;4.80;;
73814;SDS011;62145;55.648;37.602;2022-08-19T04:00:47;10.63;;;5.43;;
73814;SDS011;62145;55.648;37.602;2022-08-19T04:03:14;10.20;;;5.32;;
73814;SDS011;62145;55.648;37.602;2022-08-19T04:05:40;10.43;;;4.90;;
73814;SDS011;62145;55.648;37.602;2022-08-19T04:08:06;11.40;;;4.78;;
73814;SDS011;62145;55.648;37.602;2022-08-19T04:10:36;11.32;;;4.72;;
73814;SDS011;62145;55.648;37.602;2022-08-19T04:13:03;12.68;;;5.00;;
73814;SDS011;62145;55.648;37.602;2022-08-19T04:15:30;7.35;;;4.30;;
73814;SDS011;62145;55.648;37.602;2022-08-19T04:18:01;11.57;;;5.10;;
73814;SDS011;62145;55.648;37.602;2022-08-19T04:20:27;10.02;;;5.10;;
73814;SDS011;62145;55.648;37.602;2022-08-19T04:22:53;12.20;;;4.70;;
73814;SDS011;62145;55.648;37.602;2022-08-19T04:25:19;11.37;;;5.00;;
73814;SDS011;62145;55.648;37.602;2022-08-19T04:27:44;10.97;;;5.27;;
73814;SDS011;62145;55.648;37.602;2022-08-19T04:30:12;10.10;;;5.50;;
73814;SDS011;62145;55.648;37.602;2022-08-19T04:32:39;10.13;;;4.60;;
73814;SDS011;62145;55.648;37.602;2022-08-19T04:35:05;10.37;;;5.20;;
73814;SDS011;62145;55.648;37.602;2022-08-19T04:37:31;8.63;;;5.13;;
73814;SDS011;62145;55.648;37.602;2022-08-19T04:39:59;10.75;;;5.25;;
73814;SDS011;62145;55.648;37.602;2022-08-19T04:42:43;13.30;;;5.38;;
73814;SDS011;62145;55.648;37.602;2022-08-19T04:45:11;10.57;;;5.43;;
73814;SDS011;62145;55.648;37.602;2022-08-19T04:47:39;10.83;;;5.97;;
73814;SDS011;62145;55.648;37.602;2022-08-19T04:50:06;12.98;;;5.88;;
73814;SDS011;62145;55.648;37.602;2022-08-19T04:52:33;12.60;;;5.38;;
73814;SDS011;62145;55.648;37.602;2022-08-19T04:54:59;13.50;;;6.53;;
73814;SDS011;62145;55.648;37.602;2022-08-19T04:57:25;12.18;;;6.22;;
73814;SDS011;62145;55.648;37.602;2022-08-19T04:59:54;11.97;;;5.80;;
73814;SDS011;62145;55.648;37.602;2022-08-19T05:02:21;11.60;;;5.72;;
73814;SDS011;62145;55.648;37.602;2022-08-19T05:04:59;13.52;;;6.32;;
73814;SDS011;62145;55.648;37.602;2022-08-19T05:07:26;12.00;;;6.00;;
73814;SDS011;62145;55.648;37.602;2022-08-19T05:09:52;12.55;;;5.93;;
73814;SDS011;62145;55.648;37.602;2022-08-19T05:12:18;16.93;;;6.70;;
73814;SDS011;62145;55.648;37.602;2022-08-19T05:14:44;16.02;;;6.43;;
73814;SDS011;62145;55.648;37.602;2022-08-19T05:17:12;14.77;;;6.05;;
73814;SDS011;62145;55.648;37.602;2022-08-19T05:19:39;13.48;;;6.30;;
73814;SDS011;62145;55.648;37.602;2022-08-19T05:22:23;11.60;;;6.47;;
73814;SDS011;62145;55.648;37.602;2022-08-19T05:25:04;13.00;;;6.50;;
73814;SDS011;62145;55.648;37.602;2022-08-19T05:27:31;15.63;;;6.32;;
73814;SDS011;62145;55.648;37.602;2022-08-19T05:29:57;14.65;;;6.47;;
73814;SDS011;62145;55.648;37.602;2022-08-19T05:32:24;13.20;;;6.05;;
73814;SDS011;62145;55.648;37.602;2022-08-19T05:34:50;12.07;;;6.20;;
73814;SDS011;62145;55.648;37.602;2022-08-19T05:37:16;13.00;;;5.80;;
73814;SDS011;62145;55.648;37.602;2022-08-19T05:39:42;13.50;;;6.57;;
73814;SDS011;62145;55.648;37.602;2022-08-19T05:42:09;17.75;;;6.57;;
73814;SDS011;62145;55.648;37.602;2022-08-19T05:44:37;14.40;;;6.10;;
73814;SDS011;62145;55.648;37.602;2022-08-19T05:47:08;13.38;;;6.38;;
73814;SDS011;62145;55.648;37.602;2022-08-19T05:49:34;15.05;;;6.35;;
73814;SDS011;62145;55.648;37.602;2022-08-19T05:52:05;13.20;;;6.60;;
73814;SDS011;62145;55.648;37.602;2022-08-19T05:54:33;13.35;;;6.22;;
73814;SDS011;62145;55.648;37.602;2022-08-19T05:56:59;13.07;;;6.40;;
73814;SDS011;62145;55.648;37.602;2022-08-19T05:59:26;13.20;;;6.25;;
73814;SDS011;62145;55.648;37.602;2022-08-19T06:01:52;14.73;;;6.55;;
73814;SDS011;62145;55.648;37.602;2022-08-19T06:04:21;11.57;;;6.30;;
73814;SDS011;62145;55.648;37.602;2022-08-19T06:06:48;12.63;;;6.40;;
73814;SDS011;62145;55.648;37.602;2022-08-19T06:09:14;11.48;;;6.65;;
73814;SDS011;62145;55.648;37.602;2022-08-19T06:11:42;11.98;;;6.25;;
73814;SDS011;62145;55.648;37.602;2022-08-19T06:14:25;11.88;;;5.90;;
73814;SDS011;62145;55.648;37.602;2022-08-19T06:16:53;13.60;;;6.68;;
73814;SDS011;62145;55.648;37.602;2022-08-19T06:19:20;11.10;;;6.17;;
73814;SDS011;62145;55.648;37.602;2022-08-19T06:21:50;12.90;;;6.38;;
73814;SDS011;62145;55.648;37.602;2022-08-19T06:24:35;14.55;;;6.40;;
73814;SDS011;62145;55.648;37.602;2022-08-19T06:27:01;11.70;;;5.90;;
73814;SDS011;62145;55.648;37.602;2022-08-19T06:29:28;12.90;;;6.10;;
73814;SDS011;62145;55.648;37.602;2022-08-19T06:31:56;12.65;;;6.20;;
73814;SDS011;62145;55.648;37.602;2022-08-19T06:34:24;10.90;;;6.00;;
73814;SDS011;62145;55.648;37.602;2022-08-19T06:36:54;11.95;;;6.28;;
73814;SDS011;62145;55.648;37.602;2022-08-19T06:39:23;13.93;;;5.85;;
73814;SDS011;62145;55.648;37.602;2022-08-19T06:41:54;12.77;;;5.47;;
73814;SDS011;62145;55.648;37.602;2022-08-19T06:44:23;14.95;;;5.82;;
73814;SDS011;62145;55.648;37.602;2022-08-19T06:46:52;12.98;;;5.45;;
73814;SDS011;62145;55.648;37.602;2022-08-19T06:49:18;9.68;;;5.57;;
73814;SDS011;62145;55.648;37.602;2022-08-19T06:51:45;9.70;;;5.40;;
73814;SDS011;62145;55.648;37.602;2022-08-19T06:54:14;10.63;;;5.80;;
73814;SDS011;62145;55.648;37.602;2022-08-19T06:56:45;11.18;;;5.10;;
73814;SDS011;62145;55.648;37.602;2022-08-19T06:59:12;13.13;;;5.53;;
73814;SDS011;62145;55.648;37.602;2022-08-19T07:01:42;15.20;;;5.75;;
73814;SDS011;62145;55.648;37.602;2022-08-19T07:04:13;14.45;;;5.75;;
73814;SDS011;62145;55.648;37.602;2022-08-19T07:06:41;11.57;;;6.03;;
73814;SDS011;62145;55.648;37.602;2022-08-19T07:09:08;12.68;;;5.72;;
73814;SDS011;62145;55.648;37.602;2022-08-19T07:11:35;10.80;;;5.65;;
73814;SDS011;62145;55.648;37.602;2022-08-19T07:14:01;14.15;;;5.82;;
73814;SDS011;62145;55.648;37.602;2022-08-19T07:16:27;11.60;;;5.53;;
73814;SDS011;62145;55.648;37.602;2022-08-19T07:18:53;11.77;;;5.73;;
73814;SDS011;62145;55.648;37.602;2022-08-19T07:21:26;11.48;;;6.57;;
73814;SDS011;62145;55.648;37.602;2022-08-19T07:23:55;14.93;;;6.35;;
73814;SDS011;62145;55.648;37.602;2022-08-19T07:26:27;11.23;;;5.60;;
73814;SDS011;62145;55.648;37.602;2022-08-19T07:28:55;11.52;;;5.90;;
73814;SDS011;62145;55.648;37.602;2022-08-19T07:31:23;10.73;;;5.60;;
73814;SDS011;62145;55.648;37.602;2022-08-19T07:33:51;11.93;;;6.00;;
73814;SDS011;62145;55.648;37.602;2022-08-19T07:36:19;9.18;;;5.22;;
73814;SDS011;62145;55.648;37.602;2022-08-19T07:38:47;11.07;;;5.60;;
73814;SDS011;62145;55.648;37.602;2022-08-19T07:41:15;11.65;;;5.13;;
73814;SDS011;62145;55.648;37.602;2022-08-19T07:43:44;11.47;;;5.67;;
73814;SDS011;62145;55.648;37.602;2022-08-19T07:46:11;12.68;;;5.10;;
73814;SDS011;62145;55.648;37.602;2022-08-19T07:48:39;12.15;;;5.82;;
73814;SDS011;62145;55.648;37.602;2022-08-19T07:51:07;10.88;;;5.05;;
73814;SDS011;62145;55.648;37.602;2022-08-19T07:53:35;10.75;;;5.10;;
73814;SDS011;62145;55.648;37.602;2022-08-19T07:56:03;12.23;;;5.17;;
73814;SDS011;62145;55.648;37.602;2022-08-19T07:58:30;8.70;;;3.83;;
73814;SDS011;62145;55.648;37.602;2022-08-19T08:00:58;8.90;;;4.68;;
73814;SDS011;62145;55.648;37.602;2022-08-19T08:03:24;13.63;;;5.30;;
73814;SDS011;62145;55.648;37.602;2022-08-19T08:06:10;11.30;;;4.38;;
73814;SDS011;62145;55.648;37.602;2022-08-19T08:08:57;8.73;;;4.10;;
73814;SDS011;62145;55.648;37.602;2022-08-19T08:11:41;10.60;;;4.90;;
73814;SDS011;62145;55.648;37.602;2022-08-19T08:14:15;8.15;;;4.65;;
73814;SDS011;62145;55.648;37.602;2022-08-19T08:16:52;7.68;;;4.28;;
73814;SDS011;62145;55.648;37.602;2022-08-19T08:19:19;9.98;;;4.78;;
73814;SDS011;62145;55.648;37.602;2022-08-19T08:21:47;13.03;;;5.27;;
73814;SDS011;62145;55.648;37.602;2022-08-19T08:24:14;10.63;;;5.30;;
73814;SDS011;62145;55.648;37.602;2022-08-19T08:26:41;10.93;;;5.00;;
73814;SDS011;62145;55.648;37.602;2022-08-19T08:29:12;11.88;;;4.85;;
73814;SDS011;62145;55.648;37.602;2022-08-19T08:31:42;9.20;;;4.82;;
73814;SDS011;62145;55.648;37.602;2022-08-19T08:34:09;8.77;;;4.40;;
73814;SDS011;62145;55.648;37.602;2022-08-19T08:36:40;7.07;;;4.88;;
73814;SDS011;62145;55.648;37.602;2022-08-19T08:39:11;10.45;;;4.90;;
73814;SDS011;62145;55.648;37.602;2022-08-19T08:44:40;9.50;;;4.80;;
73814;SDS011;62145;55.648;37.602;2022-08-19T08:47:30;9.70;;;3.63;;
73814;SDS011;62145;55.648;37.602;2022-08-19T08:50:03;6.88;;;3.33;;
73814;SDS011;62145;55.648;37.602;2022-08-19T08:52:36;7.30;;;3.40;;
73814;SDS011;62145;55.648;37.602;2022-08-19T08:55:10;11.70;;;3.75;;
73814;SDS011;62145;55.648;37.602;2022-08-19T08:57:49;7.80;;;3.83;;
73814;SDS011;62145;55.648;37.602;2022-08-19T09:02:47;10.70;;;3.55;;
73814;SDS011;62145;55.648;37.602;2022-08-19T09:05:13;6.07;;;3.15;;
73814;SDS011;62145;55.648;37.602;2022-08-19T09:13:21;8.77;;;4.10;;
73814;SDS011;62145;55.648;37.602;2022-08-19T09:15:52;12.90;;;3.97;;
73814;SDS011;62145;55.648;37.602;2022-08-19T09:18:21;8.60;;;3.45;;
73814;SDS011;62145;55.648;37.602;2022-08-19T09:20:47;10.60;;;4.03;;
73814;SDS011;62145;55.648;37.602;2022-08-19T09:23:13;5.63;;;3.83;;
73814;SDS011;62145;55.648;37.602;2022-08-19T09:25:39;9.13;;;4.35;;
73814;SDS011;62145;55.648;37.602;2022-08-19T09:28:05;6.13;;;3.35;;
73814;SDS011;62145;55.648;37.602;2022-08-19T09:30:33;10.07;;;4.22;;
73814;SDS011;62145;55.648;37.602;2022-08-19T09:33:00;9.82;;;4.20;;
73814;SDS011;62145;55.648;37.602;2022-08-19T09:35:27;10.40;;;4.63;;
73814;SDS011;62145;55.648;37.602;2022-08-19T09:37:54;7.85;;;4.32;;
73814;SDS011;62145;55.648;37.602;2022-08-19T09:40:22;6.72;;;4.30;;
73814;SDS011;62145;55.648;37.602;2022-08-19T09:42:49;7.03;;;3.95;;
73814;SDS011;62145;55.648;37.602;2022-08-19T09:45:15;7.25;;;3.90;;
73814;SDS011;62145;55.648;37.602;2022-08-19T09:47:42;7.47;;;3.90;;
73814;SDS011;62145;55.648;37.602;2022-08-19T09:50:10;10.18;;;3.55;;
73814;SDS011;62145;55.648;37.602;2022-08-19T09:52:36;8.07;;;3.38;;
73814;SDS011;62145;55.648;37.602;2022-08-19T09:55:04;9.18;;;3.90;;
73814;SDS011;62145;55.648;37.602;2022-08-19T09:57:30;10.27;;;3.88;;
73814;SDS011;62145;55.648;37.602;2022-08-19T09:59:56;13.77;;;3.50;;
73814;SDS011;62145;55.648;37.602;2022-08-19T10:02:22;7.75;;;3.60;;
73814;SDS011;62145;55.648;37.602;2022-08-19T10:04:48;9.80;;;3.53;;
73814;SDS011;62145;55.648;37.602;2022-08-19T10:07:32;8.57;;;3.50;;
73814;SDS011;62145;55.648;37.602;2022-08-19T10:09:58;7.10;;;3.00;;
73814;SDS011;62145;55.648;37.602;2022-08-19T10:12:24;12.18;;;3.60;;
73814;SDS011;62145;55.648;37.602;2022-08-19T10:14:50;9.23;;;3.30;;
73814;SDS011;62145;55.648;37.602;2022-08-19T10:17:18;8.82;;;3.50;;
73814;SDS011;62145;55.648;37.602;2022-08-19T10:19:44;7.70;;;3.17;;
73814;SDS011;62145;55.648;37.602;2022-08-19T10:22:10;8.18;;;3.17;;
73814;SDS011;62145;55.648;37.602;2022-08-19T10:24:39;7.80;;;3.28;;
73814;SDS011;62145;55.648;37.602;2022-08-19T10:27:06;9.68;;;3.10;;
73814;SDS011;62145;55.648;37.602;2022-08-19T10:29:32;7.10;;;3.03;;
73814;SDS011;62145;55.648;37.602;2022-08-19T10:32:00;6.15;;;2.72;;
73814;SDS011;62145;55.648;37.602;2022-08-19T10:34:27;9.52;;;3.35;;
73814;SDS011;62145;55.648;37.602;2022-08-19T10:36:54;7.38;;;2.55;;
73814;SDS011;62145;55.648;37.602;2022-08-19T10:39:21;9.50;;;3.03;;
73814;SDS011;62145;55.648;37.602;2022-08-19T10:41:47;9.93;;;3.20;;
73814;SDS011;62145;55.648;37.602;2022-08-19T10:44:13;7.60;;;2.85;;
73814;SDS011;62145;55.648;37.602;2022-08-19T10:46:40;10.77;;;2.90;;
73814;SDS011;62145;55.648;37.602;2022-08-19T10:49:07;6.97;;;3.20;;
73814;SDS011;62145;55.648;37.602;2022-08-19T10:51:35;9.57;;;3.05;;
73814;SDS011;62145;55.648;37.602;2022-08-19T10:54:19;7.20;;;3.00;;
73814;SDS011;62145;55.648;37.602;2022-08-19T10:56:45;9.55;;;3.17;;
73814;SDS011;62145;55.648;37.602;2022-08-19T10:59:20;8.73;;;3.10;;
73814;SDS011;62145;55.648;37.602;2022-08-19T11:01:53;5.70;;;3.05;;
73814;SDS011;62145;55.648;37.602;2022-08-19T11:04:20;11.20;;;3.60;;
73814;SDS011;62145;55.648;37.602;2022-08-19T11:06:48;5.63;;;2.60;;
73814;SDS011;62145;55.648;37.602;2022-08-19T11:09:15;6.63;;;3.10;;
73814;SDS011;62145;55.648;37.602;2022-08-19T11:11:43;7.90;;;3.03;;
73814;SDS011;62145;55.648;37.602;2022-08-19T11:14:09;7.78;;;2.85;;
73814;SDS011;62145;55.648;37.602;2022-08-19T11:16:37;5.50;;;2.63;;
73814;SDS011;62145;55.648;37.602;2022-08-19T11:19:04;7.55;;;3.17;;
73814;SDS011;62145;55.648;37.602;2022-08-19T11:21:33;7.72;;;3.08;;
73814;SDS011;62145;55.648;37.602;2022-08-19T11:24:01;8.23;;;3.00;;
73814;SDS011;62145;55.648;37.602;2022-08-19T11:26:30;10.15;;;3.28;;
73814;SDS011;62145;55.648;37.602;2022-08-19T11:28:56;6.35;;;3.33;;
73814;SDS011;62145;55.648;37.602;2022-08-19T11:31:25;8.00;;;3.40;;
73814;SDS011;62145;55.648;37.602;2022-08-19T11:33:55;7.82;;;3.35;;
73814;SDS011;62145;55.648;37.602;2022-08-19T11:36:25;7.80;;;3.33;;
73814;SDS011;62145;55.648;37.602;2022-08-19T11:38:51;9.13;;;3.20;;
73814;SDS011;62145;55.648;37.602;2022-08-19T11:41:19;10.23;;;3.33;;
73814;SDS011;62145;55.648;37.602;2022-08-19T11:43:46;8.80;;;3.55;;
73814;SDS011;62145;55.648;37.602;2022-08-19T11:46:12;8.68;;;3.08;;
73814;SDS011;62145;55.648;37.602;2022-08-19T11:48:40;10.10;;;3.20;;
73814;SDS011;62145;55.648;37.602;2022-08-19T11:51:07;7.72;;;3.20;;
73814;SDS011;62145;55.648;37.602;2022-08-19T11:53:36;8.15;;;3.38;;
73814;SDS011;62145;55.648;37.602;2022-08-19T11:56:03;7.15;;;2.90;;
73814;SDS011;62145;55.648;37.602;2022-08-19T11:58:30;10.38;;;3.30;;
73814;SDS011;62145;55.648;37.602;2022-08-19T12:00:56;8.10;;;3.30;;
73814;SDS011;62145;55.648;37.602;2022-08-19T12:03:22;7.25;;;3.33;;
73814;SDS011;62145;55.648;37.602;2022-08-19T12:05:48;7.07;;;2.95;;
73814;SDS011;62145;55.648;37.602;2022-08-19T12:08:15;8.02;;;3.75;;
73814;SDS011;62145;55.648;37.602;2022-08-19T12:10:41;6.53;;;3.50;;
73814;SDS011;62145;55.648;37.602;2022-08-19T12:13:08;9.83;;;3.90;;
73814;SDS011;62145;55.648;37.602;2022-08-19T12:15:35;9.95;;;3.83;;
73814;SDS011;62145;55.648;37.602;2022-08-19T12:18:02;8.57;;;3.80;;
73814;SDS011;62145;55.648;37.602;2022-08-19T12:20:29;10.55;;;3.85;;
73814;SDS011;62145;55.648;37.602;2022-08-19T12:22:55;8.73;;;3.70;;
73814;SDS011;62145;55.648;37.602;2022-08-19T12:25:21;8.53;;;3.63;;
73814;SDS011;62145;55.648;37.602;2022-08-19T12:27:47;8.23;;;4.05;;
73814;SDS011;62145;55.648;37.602;2022-08-19T12:30:13;8.82;;;3.80;;
73814;SDS011;62145;55.648;37.602;2022-08-19T12:32:39;10.70;;;4.23;;
73814;SDS011;62145;55.648;37.602;2022-08-19T12:35:06;6.30;;;3.13;;
73814;SDS011;62145;55.648;37.602;2022-08-19T12:37:33;7.53;;;3.58;;
73814;SDS011;62145;55.648;37.602;2022-08-19T12:39:59;8.57;;;3.90;;
73814;SDS011;62145;55.648;37.602;2022-08-19T12:42:25;9.17;;;3.93;;
73814;SDS011;62145;55.648;37.602;2022-08-19T12:44:51;10.98;;;4.15;;
73814;SDS011;62145;55.648;37.602;2022-08-19T12:47:17;8.38;;;3.33;;
73814;SDS011;62145;55.648;37.602;2022-08-19T12:49:43;8.98;;;3.47;;
73814;SDS011;62145;55.648;37.602;2022-08-19T12:52:09;9.03;;;3.30;;
73814;SDS011;62145;55.648;37.602;2022-08-19T12:54:36;9.25;;;4.00;;
73814;SDS011;62145;55.648;37.602;2022-08-19T12:57:09;11.60;;;4.03;;
73814;SDS011;62145;55.648;37.602;2022-08-19T12:59:36;8.25;;;3.67;;
73814;SDS011;62145;55.648;37.602;2022-08-19T13:02:03;10.40;;;4.03;;
73814;SDS011;62145;55.648;37.602;2022-08-19T13:04:31;10.77;;;3.63;;
73814;SDS011;62145;55.648;37.602;2022-08-19T13:07:00;12.68;;;4.38;;
73814;SDS011;62145;55.648;37.602;2022-08-19T13:09:26;8.88;;;3.33;;
73814;SDS011;62145;55.648;37.602;2022-08-19T13:11:52;7.87;;;3.70;;
73814;SDS011;62145;55.648;37.602;2022-08-19T13:14:17;11.23;;;4.47;;
73814;SDS011;62145;55.648;37.602;2022-08-19T13:16:44;8.35;;;4.05;;
73814;SDS011;62145;55.648;37.602;2022-08-19T13:19:09;9.63;;;4.17;;
73814;SDS011;62145;55.648;37.602;2022-08-19T13:21:37;11.23;;;4.20;;
73814;SDS011;62145;55.648;37.602;2022-08-19T13:24:03;11.50;;;6.40;;
73814;SDS011;62145;55.648;37.602;2022-08-19T13:26:29;8.15;;;5.15;;
73814;SDS011;62145;55.648;37.602;2022-08-19T13:28:54;12.63;;;5.15;;
73814;SDS011;62145;55.648;37.602;2022-08-19T13:31:40;10.90;;;4.20;;
73814;SDS011;62145;55.648;37.602;2022-08-19T13:34:30;9.70;;;5.10;;
73814;SDS011;62145;55.648;37.602;2022-08-19T13:36:58;7.82;;;4.95;;
73814;SDS011;62145;55.648;37.602;2022-08-19T13:39:24;11.63;;;6.35;;
73814;SDS011;62145;55.648;37.602;2022-08-19T13:41:50;11.13;;;5.87;;
73814;SDS011;62145;55.648;37.602;2022-08-19T13:44:16;10.33;;;5.90;;
73814;SDS011;62145;55.648;37.602;2022-08-19T13:46:46;17.67;;;10.10;;
73814;SDS011;62145;55.648;37.602;2022-08-19T13:49:13;16.02;;;11.50;;
73814;SDS011;62145;55.648;37.602;2022-08-19T13:51:41;17.65;;;10.50;;
73814;SDS011;62145;55.648;37.602;2022-08-19T13:54:08;15.57;;;10.73;;
73814;SDS011;62145;55.648;37.602;2022-08-19T13:56:39;13.63;;;9.33;;
73814;SDS011;62145;55.648;37.602;2022-08-19T13:59:06;14.52;;;10.50;;
73814;SDS011;62145;55.648;37.602;2022-08-19T14:01:32;15.65;;;12.38;;
73814;SDS011;62145;55.648;37.602;2022-08-19T14:03:59;18.60;;;14.73;;
73814;SDS011;62145;55.648;37.602;2022-08-19T14:06:25;24.00;;;18.83;;
73814;SDS011;62145;55.648;37.602;2022-08-19T14:08:51;24.42;;;17.40;;
73814;SDS011;62145;55.648;37.602;2022-08-19T14:11:18;27.10;;;21.83;;
73814;SDS011;62145;55.648;37.602;2022-08-19T14:13:44;24.83;;;20.60;;
73814;SDS011;62145;55.648;37.602;2022-08-19T14:16:11;22.17;;;18.17;;
73814;SDS011;62145;55.648;37.602;2022-08-19T14:18:38;21.15;;;16.02;;
73814;SDS011;62145;55.648;37.602;2022-08-19T14:21:05;20.27;;;14.38;;
73814;SDS011;62145;55.648;37.602;2022-08-19T14:23:33;16.27;;;11.15;;
73814;SDS011;62145;55.648;37.602;2022-08-19T14:26:03;16.42;;;10.85;;
73814;SDS011;62145;55.648;37.602;2022-08-19T14:28:30;16.03;;;9.80;;
73814;SDS011;62145;55.648;37.602;2022-08-19T14:30:56;13.95;;;9.80;;
73814;SDS011;62145;55.648;37.602;2022-08-19T14:33:22;15.82;;;10.02;;
73814;SDS011;62145;55.648;37.602;2022-08-19T14:35:47;23.30;;;16.60;;
73814;SDS011;62145;55.648;37.602;2022-08-19T14:38:17;28.58;;;22.88;;
73814;SDS011;62145;55.648;37.602;2022-08-19T14:40:43;32.40;;;21.52;;
73814;SDS011;62145;55.648;37.602;2022-08-19T14:43:10;34.67;;;23.65;;